Hlavní strana
METAR-TAF:

METAR-TAF

Letiště :

Ciudad de Panamá, Panama

zeměpisná šířka: 08-59N, zeměpisná délka: 079-31W, výška: 13 m

Aktuální stav počasí

Zpráva byla vytvořena před 1 hodinou a 3 minutami, v 09:00 UTC
Západoseverozápadní vítr 4 kt
Teplota 23°C
Vlhkost vzduchu 83%
Tlak 1012 hPa

METAR: MPMG 240900Z AUTO 30004KT //// R01///// // BKN160/// 23/20 Q1012

Čas: 05:03 (10:03 UTC)

Předpověď počasí

Zpráva byla vytvořena před 11 hodinami a 3 minutami, v 23:00 UTC
Předpověď platná od 23 v 24 UTC do 24 v 12 UTC
Severoseverozápadní vítr 10 kt
Viditelnost 10 km a více
Skoro jasno ve výšce 2000 ft
Změna
od 24 v 02 UTC do 24 v 06 UTC
Viditelnost 10 km a více
Žádná oblačnost pod 1500 m, nevyskytují se cumulonimby.

TAF: MPMG 232300Z 2324/2412 33010KT 9999 FEW020 BECMG 2402/2406 CAVOK

Stav a předpovědi počasí z více než 4 000 letišť (zprávy METAR a TAF).

Červené a žluté tečky na mapě představují dostupné meteorologické stanice.

Když kurzor umístíte na tečku, zobrazí se název stanice.

Pak kliknutím zobrazíte stav a předpověď počasí.

Chcete-li změnit mapu, kliknutím na zelené tlačítko se znaménkem +mapu přiblížíte, kliknutím na zelené tlačítko se znaménkem – mapu oddálíte a kliknutím na zelené šipky přejdete na sousední mapy.


METAR-TAF: